Current Weather

Spangdahlem Ab

Spangdahlem Ab, Germany (ETAD)

Report from: Sunday, November 27, 2022 8:55 AM CET
Current time: Sunday, November 27, 2022 9:44 AM CET

Nearby weather
Weather history
Weather forecast

Present weatherMist
Temperature2.0°C (35.6°F)
Dew point0.7°C (33.3°F)
Winds Calm
Visibility1.9 mi. (3 km)
Clouds Ceiling: Broken clouds 300 ft. (91 m)
Altimeter30.21 in.Hg (1023 mB)
Relative humidity91 %
Density altitude-1,818 ft. (-554 m)
Sea-level pressure102.3 kPa (1023 mB, 30.22 in.Hg)
Remarks Automated weather observing station with precipitation discriminator
Flight conditions Low Instrument Meteorological Conditions
Raw dataETAD 270755Z 00000KT 3000 BR BKN003 02/01 A3021 RMK AO2A SLP234 T00200007
An error has occurred. This application may no longer respond until reloaded. Reload 🗙